KR-0399 weather

Busan Hotel Heliport
Busan, Busan Gwang'yeogsi, South Korea

Public forecast

Using degrees Celsius for public forecast. Weather courtesy of forecast.io.

METAR (pilot weather report)

Closest report is Gimhae International Airport, 6.7 nm (12.4 km) NW. Retrieved 2019/08/21 07:10 UTC (0 seconds ago):

RKPK 210710Z 19010KT 9000 -RA FEW020 BKN030 OVC050 27/24 Q1008 RMK CIG030

TAF (pilot weather forecast)

Closest forecast is Gimhae International Airport, 6.7 nm (12.4 km) NW. Retrieved 2019/08/21 06:00 UTC (1 hour ago):

TAF RKPK 210500Z 2106/2212 18006KT 9000 SCT020 BKN030 BKN050 TN26/2120Z TX29/2206Z BECMG 2106/2107 4800 -RA BR BKN015 BKN030 BECMG 2115/2116 3200 BKN010 BKN020